sensor_id;sensor_type;location;lat;lon;timestamp;P1;durP1;ratioP1;P2;durP2;ratioP2
5559;SDS011;2803;47.916;8.074;2023-02-28T00:01:19;11.03;;;4.40;;
5559;SDS011;2803;47.916;8.074;2023-02-28T00:03:46;7.50;;;4.17;;
5559;SDS011;2803;47.916;8.074;2023-02-28T00:06:13;7.93;;;4.60;;
5559;SDS011;2803;47.916;8.074;2023-02-28T00:08:40;6.27;;;4.17;;
5559;SDS011;2803;47.916;8.074;2023-02-28T00:11:09;6.00;;;3.87;;
5559;SDS011;2803;47.916;8.074;2023-02-28T00:13:37;6.27;;;4.60;;
5559;SDS011;2803;47.916;8.074;2023-02-28T00:16:06;7.00;;;4.10;;
5559;SDS011;2803;47.916;8.074;2023-02-28T00:18:35;7.90;;;5.30;;
5559;SDS011;2803;47.916;8.074;2023-02-28T00:21:02;7.20;;;4.40;;
5559;SDS011;2803;47.916;8.074;2023-02-28T00:23:29;6.20;;;4.50;;
5559;SDS011;2803;47.916;8.074;2023-02-28T00:25:56;8.80;;;4.60;;
5559;SDS011;2803;47.916;8.074;2023-02-28T00:28:24;10.87;;;5.03;;
5559;SDS011;2803;47.916;8.074;2023-02-28T00:30:50;6.17;;;4.63;;
5559;SDS011;2803;47.916;8.074;2023-02-28T00:33:17;7.00;;;4.47;;
5559;SDS011;2803;47.916;8.074;2023-02-28T00:35:44;8.37;;;4.27;;
5559;SDS011;2803;47.916;8.074;2023-02-28T00:38:11;8.00;;;4.27;;
5559;SDS011;2803;47.916;8.074;2023-02-28T00:40:38;6.60;;;4.87;;
5559;SDS011;2803;47.916;8.074;2023-02-28T00:43:05;7.20;;;5.07;;
5559;SDS011;2803;47.916;8.074;2023-02-28T00:45:32;6.97;;;4.90;;
5559;SDS011;2803;47.916;8.074;2023-02-28T00:47:59;8.07;;;4.60;;
5559;SDS011;2803;47.916;8.074;2023-02-28T00:50:26;9.27;;;5.20;;
5559;SDS011;2803;47.916;8.074;2023-02-28T00:52:53;6.80;;;4.53;;
5559;SDS011;2803;47.916;8.074;2023-02-28T00:55:19;6.50;;;4.20;;
5559;SDS011;2803;47.916;8.074;2023-02-28T00:57:46;7.03;;;4.93;;
5559;SDS011;2803;47.916;8.074;2023-02-28T01:00:13;9.90;;;4.87;;
5559;SDS011;2803;47.916;8.074;2023-02-28T01:02:41;9.03;;;5.53;;
5559;SDS011;2803;47.916;8.074;2023-02-28T01:05:08;9.20;;;5.10;;
5559;SDS011;2803;47.916;8.074;2023-02-28T01:07:36;12.37;;;5.50;;
5559;SDS011;2803;47.916;8.074;2023-02-28T01:10:03;9.10;;;5.90;;
5559;SDS011;2803;47.916;8.074;2023-02-28T01:12:30;14.43;;;6.40;;
5559;SDS011;2803;47.916;8.074;2023-02-28T01:14:57;12.93;;;4.83;;
5559;SDS011;2803;47.916;8.074;2023-02-28T01:17:23;9.87;;;5.73;;
5559;SDS011;2803;47.916;8.074;2023-02-28T01:19:53;9.30;;;4.93;;
5559;SDS011;2803;47.916;8.074;2023-02-28T01:22:21;7.33;;;4.97;;
5559;SDS011;2803;47.916;8.074;2023-02-28T01:24:47;9.13;;;5.30;;
5559;SDS011;2803;47.916;8.074;2023-02-28T01:27:14;8.27;;;4.90;;
5559;SDS011;2803;47.916;8.074;2023-02-28T01:29:41;5.90;;;4.90;;
5559;SDS011;2803;47.916;8.074;2023-02-28T01:32:07;10.43;;;5.00;;
5559;SDS011;2803;47.916;8.074;2023-02-28T01:34:34;9.00;;;5.37;;
5559;SDS011;2803;47.916;8.074;2023-02-28T01:37:02;6.60;;;4.80;;
5559;SDS011;2803;47.916;8.074;2023-02-28T01:39:28;8.17;;;4.97;;
5559;SDS011;2803;47.916;8.074;2023-02-28T01:41:55;11.63;;;5.40;;
5559;SDS011;2803;47.916;8.074;2023-02-28T01:47:18;6.73;;;4.50;;
5559;SDS011;2803;47.916;8.074;2023-02-28T01:49:46;9.77;;;5.17;;
5559;SDS011;2803;47.916;8.074;2023-02-28T01:52:15;8.93;;;5.10;;
5559;SDS011;2803;47.916;8.074;2023-02-28T01:54:46;8.10;;;5.23;;
5559;SDS011;2803;47.916;8.074;2023-02-28T01:57:18;6.50;;;4.43;;
5559;SDS011;2803;47.916;8.074;2023-02-28T01:59:50;11.23;;;5.20;;
5559;SDS011;2803;47.916;8.074;2023-02-28T02:02:21;5.43;;;4.20;;
5559;SDS011;2803;47.916;8.074;2023-02-28T02:04:50;11.53;;;5.03;;
5559;SDS011;2803;47.916;8.074;2023-02-28T02:07:21;7.00;;;5.00;;
5559;SDS011;2803;47.916;8.074;2023-02-28T02:09:56;7.07;;;4.77;;
5559;SDS011;2803;47.916;8.074;2023-02-28T02:12:27;7.30;;;4.47;;
5559;SDS011;2803;47.916;8.074;2023-02-28T02:15:07;8.33;;;5.43;;
5559;SDS011;2803;47.916;8.074;2023-02-28T02:17:42;7.47;;;4.40;;
5559;SDS011;2803;47.916;8.074;2023-02-28T02:26:04;8.30;;;5.63;;
5559;SDS011;2803;47.916;8.074;2023-02-28T02:28:53;6.80;;;4.50;;
5559;SDS011;2803;47.916;8.074;2023-02-28T02:31:33;7.63;;;4.80;;
5559;SDS011;2803;47.916;8.074;2023-02-28T02:34:26;6.93;;;4.53;;
5559;SDS011;2803;47.916;8.074;2023-02-28T02:37:01;8.60;;;4.90;;
5559;SDS011;2803;47.916;8.074;2023-02-28T02:39:38;6.40;;;4.67;;
5559;SDS011;2803;47.916;8.074;2023-02-28T02:42:14;6.70;;;4.77;;
5559;SDS011;2803;47.916;8.074;2023-02-28T02:44:45;9.97;;;5.10;;
5559;SDS011;2803;47.916;8.074;2023-02-28T02:47:15;9.63;;;5.17;;
5559;SDS011;2803;47.916;8.074;2023-02-28T02:49:47;7.27;;;5.07;;
5559;SDS011;2803;47.916;8.074;2023-02-28T02:52:17;5.80;;;4.20;;
5559;SDS011;2803;47.916;8.074;2023-02-28T02:54:47;6.70;;;4.80;;
5559;SDS011;2803;47.916;8.074;2023-02-28T02:57:20;9.30;;;5.40;;
5559;SDS011;2803;47.916;8.074;2023-02-28T02:59:49;7.70;;;5.53;;
5559;SDS011;2803;47.916;8.074;2023-02-28T03:02:19;4.43;;;4.00;;
5559;SDS011;2803;47.916;8.074;2023-02-28T03:04:50;7.87;;;4.90;;
5559;SDS011;2803;47.916;8.074;2023-02-28T03:07:19;8.67;;;6.07;;
5559;SDS011;2803;47.916;8.074;2023-02-28T03:09:50;7.80;;;5.10;;
5559;SDS011;2803;47.916;8.074;2023-02-28T03:12:17;6.47;;;4.60;;
5559;SDS011;2803;47.916;8.074;2023-02-28T03:14:48;8.27;;;5.53;;
5559;SDS011;2803;47.916;8.074;2023-02-28T03:17:25;9.00;;;5.23;;
5559;SDS011;2803;47.916;8.074;2023-02-28T03:20:15;14.83;;;5.73;;
5559;SDS011;2803;47.916;8.074;2023-02-28T03:22:51;8.73;;;5.70;;
5559;SDS011;2803;47.916;8.074;2023-02-28T03:25:27;8.30;;;5.50;;
5559;SDS011;2803;47.916;8.074;2023-02-28T03:28:03;12.03;;;5.73;;
5559;SDS011;2803;47.916;8.074;2023-02-28T03:30:37;7.73;;;5.50;;
5559;SDS011;2803;47.916;8.074;2023-02-28T03:33:12;8.67;;;5.27;;
5559;SDS011;2803;47.916;8.074;2023-02-28T03:35:45;7.73;;;5.30;;
5559;SDS011;2803;47.916;8.074;2023-02-28T03:38:18;8.23;;;5.40;;
5559;SDS011;2803;47.916;8.074;2023-02-28T03:40:49;9.93;;;5.63;;
5559;SDS011;2803;47.916;8.074;2023-02-28T03:43:20;9.20;;;5.97;;
5559;SDS011;2803;47.916;8.074;2023-02-28T03:45:51;8.77;;;5.70;;
5559;SDS011;2803;47.916;8.074;2023-02-28T03:48:21;10.67;;;6.17;;
5559;SDS011;2803;47.916;8.074;2023-02-28T03:50:54;14.97;;;6.13;;
5559;SDS011;2803;47.916;8.074;2023-02-28T03:53:25;10.63;;;5.70;;
5559;SDS011;2803;47.916;8.074;2023-02-28T03:55:56;10.20;;;5.87;;
5559;SDS011;2803;47.916;8.074;2023-02-28T03:58:27;8.47;;;5.73;;
5559;SDS011;2803;47.916;8.074;2023-02-28T04:00:59;9.67;;;5.60;;
5559;SDS011;2803;47.916;8.074;2023-02-28T04:03:33;8.90;;;5.97;;
5559;SDS011;2803;47.916;8.074;2023-02-28T04:06:02;7.60;;;5.33;;
5559;SDS011;2803;47.916;8.074;2023-02-28T04:08:29;8.33;;;5.40;;
5559;SDS011;2803;47.916;8.074;2023-02-28T04:10:56;9.33;;;5.37;;
5559;SDS011;2803;47.916;8.074;2023-02-28T04:13:27;9.87;;;5.77;;
5559;SDS011;2803;47.916;8.074;2023-02-28T04:15:54;8.53;;;5.90;;
5559;SDS011;2803;47.916;8.074;2023-02-28T04:18:20;7.93;;;5.40;;
5559;SDS011;2803;47.916;8.074;2023-02-28T04:20:47;9.00;;;5.60;;
5559;SDS011;2803;47.916;8.074;2023-02-28T04:23:15;9.10;;;5.33;;
5559;SDS011;2803;47.916;8.074;2023-02-28T04:25:41;10.93;;;5.40;;
5559;SDS011;2803;47.916;8.074;2023-02-28T04:28:08;8.83;;;5.00;;
5559;SDS011;2803;47.916;8.074;2023-02-28T04:30:35;11.13;;;5.70;;
5559;SDS011;2803;47.916;8.074;2023-02-28T04:33:04;7.80;;;5.23;;
5559;SDS011;2803;47.916;8.074;2023-02-28T04:35:30;9.87;;;5.87;;
5559;SDS011;2803;47.916;8.074;2023-02-28T04:37:57;7.67;;;5.30;;
5559;SDS011;2803;47.916;8.074;2023-02-28T04:40:25;9.07;;;5.50;;
5559;SDS011;2803;47.916;8.074;2023-02-28T04:42:51;14.13;;;5.70;;
5559;SDS011;2803;47.916;8.074;2023-02-28T04:45:18;9.33;;;6.07;;
5559;SDS011;2803;47.916;8.074;2023-02-28T04:47:44;14.63;;;5.87;;
5559;SDS011;2803;47.916;8.074;2023-02-28T04:50:11;9.90;;;6.00;;
5559;SDS011;2803;47.916;8.074;2023-02-28T04:52:38;11.63;;;6.13;;
5559;SDS011;2803;47.916;8.074;2023-02-28T04:55:05;7.50;;;5.90;;
5559;SDS011;2803;47.916;8.074;2023-02-28T04:57:33;8.90;;;6.40;;
5559;SDS011;2803;47.916;8.074;2023-02-28T04:59:59;9.10;;;5.83;;
5559;SDS011;2803;47.916;8.074;2023-02-28T05:02:30;12.60;;;6.27;;
5559;SDS011;2803;47.916;8.074;2023-02-28T05:04:57;9.87;;;6.90;;
5559;SDS011;2803;47.916;8.074;2023-02-28T05:07:24;9.60;;;5.70;;
5559;SDS011;2803;47.916;8.074;2023-02-28T05:09:51;11.20;;;6.70;;
5559;SDS011;2803;47.916;8.074;2023-02-28T05:12:18;10.83;;;6.37;;
5559;SDS011;2803;47.916;8.074;2023-02-28T05:14:46;9.30;;;6.03;;
5559;SDS011;2803;47.916;8.074;2023-02-28T05:17:12;10.10;;;6.60;;
5559;SDS011;2803;47.916;8.074;2023-02-28T05:19:39;9.03;;;5.93;;
5559;SDS011;2803;47.916;8.074;2023-02-28T05:22:11;9.67;;;5.87;;
5559;SDS011;2803;47.916;8.074;2023-02-28T05:24:40;10.27;;;6.37;;
5559;SDS011;2803;47.916;8.074;2023-02-28T05:27:07;13.33;;;6.57;;
5559;SDS011;2803;47.916;8.074;2023-02-28T05:29:35;10.83;;;6.03;;
5559;SDS011;2803;47.916;8.074;2023-02-28T05:32:07;11.77;;;6.53;;
5559;SDS011;2803;47.916;8.074;2023-02-28T05:34:35;10.17;;;6.17;;
5559;SDS011;2803;47.916;8.074;2023-02-28T05:37:02;9.37;;;6.73;;
5559;SDS011;2803;47.916;8.074;2023-02-28T05:39:29;10.10;;;5.63;;
5559;SDS011;2803;47.916;8.074;2023-02-28T05:41:56;7.80;;;5.97;;
5559;SDS011;2803;47.916;8.074;2023-02-28T05:44:23;9.60;;;5.87;;
5559;SDS011;2803;47.916;8.074;2023-02-28T05:46:50;9.80;;;6.77;;
5559;SDS011;2803;47.916;8.074;2023-02-28T05:49:18;7.20;;;5.17;;
5559;SDS011;2803;47.916;8.074;2023-02-28T05:51:44;9.93;;;6.50;;
5559;SDS011;2803;47.916;8.074;2023-02-28T05:54:11;9.83;;;6.00;;
5559;SDS011;2803;47.916;8.074;2023-02-28T05:56:38;9.70;;;5.87;;
5559;SDS011;2803;47.916;8.074;2023-02-28T05:59:05;11.13;;;7.20;;
5559;SDS011;2803;47.916;8.074;2023-02-28T06:01:33;14.13;;;6.60;;
5559;SDS011;2803;47.916;8.074;2023-02-28T06:04:02;10.13;;;5.97;;
5559;SDS011;2803;47.916;8.074;2023-02-28T06:06:31;8.93;;;6.03;;
5559;SDS011;2803;47.916;8.074;2023-02-28T06:08:59;7.90;;;5.80;;
5559;SDS011;2803;47.916;8.074;2023-02-28T06:11:26;14.80;;;6.43;;
5559;SDS011;2803;47.916;8.074;2023-02-28T06:13:53;8.73;;;6.30;;
5559;SDS011;2803;47.916;8.074;2023-02-28T06:16:21;11.67;;;6.33;;
5559;SDS011;2803;47.916;8.074;2023-02-28T06:18:48;10.30;;;6.47;;
5559;SDS011;2803;47.916;8.074;2023-02-28T06:21:15;12.70;;;7.83;;
5559;SDS011;2803;47.916;8.074;2023-02-28T06:23:43;12.93;;;6.83;;
5559;SDS011;2803;47.916;8.074;2023-02-28T06:26:10;13.33;;;7.40;;
5559;SDS011;2803;47.916;8.074;2023-02-28T06:28:36;14.43;;;6.93;;
5559;SDS011;2803;47.916;8.074;2023-02-28T06:31:07;12.73;;;6.10;;
5559;SDS011;2803;47.916;8.074;2023-02-28T06:33:34;13.17;;;7.40;;
5559;SDS011;2803;47.916;8.074;2023-02-28T06:36:01;18.43;;;7.70;;
5559;SDS011;2803;47.916;8.074;2023-02-28T06:38:28;13.03;;;8.17;;
5559;SDS011;2803;47.916;8.074;2023-02-28T06:40:57;11.63;;;7.43;;
5559;SDS011;2803;47.916;8.074;2023-02-28T06:43:25;10.60;;;6.60;;
5559;SDS011;2803;47.916;8.074;2023-02-28T06:45:54;14.53;;;7.93;;
5559;SDS011;2803;47.916;8.074;2023-02-28T06:48:21;15.00;;;8.00;;
5559;SDS011;2803;47.916;8.074;2023-02-28T06:50:48;14.67;;;8.23;;
5559;SDS011;2803;47.916;8.074;2023-02-28T06:53:15;14.07;;;8.00;;
5559;SDS011;2803;47.916;8.074;2023-02-28T06:55:42;11.53;;;7.50;;
5559;SDS011;2803;47.916;8.074;2023-02-28T06:58:10;11.83;;;8.13;;
5559;SDS011;2803;47.916;8.074;2023-02-28T07:00:43;12.77;;;7.70;;
5559;SDS011;2803;47.916;8.074;2023-02-28T07:03:11;15.03;;;8.27;;
5559;SDS011;2803;47.916;8.074;2023-02-28T07:05:40;16.50;;;7.97;;
5559;SDS011;2803;47.916;8.074;2023-02-28T07:08:07;13.07;;;8.10;;
5559;SDS011;2803;47.916;8.074;2023-02-28T07:10:36;17.00;;;8.60;;
5559;SDS011;2803;47.916;8.074;2023-02-28T07:13:04;14.73;;;7.60;;
5559;SDS011;2803;47.916;8.074;2023-02-28T07:15:32;12.83;;;7.47;;
5559;SDS011;2803;47.916;8.074;2023-02-28T07:17:59;13.83;;;8.40;;
5559;SDS011;2803;47.916;8.074;2023-02-28T07:20:26;14.00;;;8.70;;
5559;SDS011;2803;47.916;8.074;2023-02-28T07:22:53;13.40;;;7.80;;
5559;SDS011;2803;47.916;8.074;2023-02-28T07:25:21;13.83;;;7.90;;
5559;SDS011;2803;47.916;8.074;2023-02-28T07:27:49;14.70;;;8.00;;
5559;SDS011;2803;47.916;8.074;2023-02-28T07:30:16;17.47;;;8.50;;
5559;SDS011;2803;47.916;8.074;2023-02-28T07:32:44;12.83;;;7.77;;
5559;SDS011;2803;47.916;8.074;2023-02-28T07:35:12;16.97;;;9.83;;
5559;SDS011;2803;47.916;8.074;2023-02-28T07:37:40;17.67;;;8.93;;
5559;SDS011;2803;47.916;8.074;2023-02-28T07:40:09;16.70;;;8.67;;
5559;SDS011;2803;47.916;8.074;2023-02-28T07:42:37;15.37;;;8.83;;
5559;SDS011;2803;47.916;8.074;2023-02-28T07:45:04;21.67;;;9.83;;
5559;SDS011;2803;47.916;8.074;2023-02-28T07:47:32;18.70;;;10.20;;
5559;SDS011;2803;47.916;8.074;2023-02-28T07:50:01;16.10;;;8.93;;
5559;SDS011;2803;47.916;8.074;2023-02-28T07:52:27;16.63;;;9.00;;
5559;SDS011;2803;47.916;8.074;2023-02-28T07:54:54;15.53;;;8.10;;
5559;SDS011;2803;47.916;8.074;2023-02-28T07:57:21;14.90;;;8.50;;
5559;SDS011;2803;47.916;8.074;2023-02-28T07:59:48;13.33;;;8.30;;
5559;SDS011;2803;47.916;8.074;2023-02-28T08:02:16;16.63;;;8.50;;
5559;SDS011;2803;47.916;8.074;2023-02-28T08:04:44;20.20;;;9.03;;
5559;SDS011;2803;47.916;8.074;2023-02-28T08:07:14;16.60;;;8.40;;
5559;SDS011;2803;47.916;8.074;2023-02-28T08:09:42;16.43;;;8.93;;
5559;SDS011;2803;47.916;8.074;2023-02-28T08:12:10;16.10;;;8.97;;
5559;SDS011;2803;47.916;8.074;2023-02-28T08:14:37;17.40;;;10.00;;
5559;SDS011;2803;47.916;8.074;2023-02-28T08:17:04;23.53;;;9.03;;
5559;SDS011;2803;47.916;8.074;2023-02-28T08:19:31;16.90;;;8.90;;
5559;SDS011;2803;47.916;8.074;2023-02-28T08:21:58;19.10;;;8.40;;
5559;SDS011;2803;47.916;8.074;2023-02-28T08:24:26;18.57;;;9.27;;
5559;SDS011;2803;47.916;8.074;2023-02-28T08:26:53;15.00;;;8.93;;
5559;SDS011;2803;47.916;8.074;2023-02-28T08:29:21;15.40;;;9.17;;
5559;SDS011;2803;47.916;8.074;2023-02-28T08:31:49;20.40;;;9.60;;
5559;SDS011;2803;47.916;8.074;2023-02-28T08:34:16;22.40;;;9.73;;
5559;SDS011;2803;47.916;8.074;2023-02-28T08:36:43;16.63;;;8.43;;
5559;SDS011;2803;47.916;8.074;2023-02-28T08:39:11;21.77;;;9.40;;
5559;SDS011;2803;47.916;8.074;2023-02-28T08:41:39;16.57;;;8.07;;
5559;SDS011;2803;47.916;8.074;2023-02-28T08:44:06;15.20;;;7.53;;
5559;SDS011;2803;47.916;8.074;2023-02-28T08:46:33;17.80;;;8.77;;
5559;SDS011;2803;47.916;8.074;2023-02-28T08:49:01;13.03;;;8.60;;
5559;SDS011;2803;47.916;8.074;2023-02-28T08:51:28;15.80;;;8.63;;
5559;SDS011;2803;47.916;8.074;2023-02-28T08:53:58;14.60;;;8.20;;
5559;SDS011;2803;47.916;8.074;2023-02-28T08:56:27;16.70;;;7.13;;
5559;SDS011;2803;47.916;8.074;2023-02-28T08:58:56;16.00;;;9.07;;
5559;SDS011;2803;47.916;8.074;2023-02-28T09:01:25;17.47;;;9.67;;
5559;SDS011;2803;47.916;8.074;2023-02-28T09:03:54;14.27;;;8.33;;
5559;SDS011;2803;47.916;8.074;2023-02-28T09:06:23;19.30;;;9.53;;
5559;SDS011;2803;47.916;8.074;2023-02-28T09:08:55;16.80;;;9.10;;
5559;SDS011;2803;47.916;8.074;2023-02-28T09:11:26;14.97;;;8.60;;
5559;SDS011;2803;47.916;8.074;2023-02-28T09:13:53;18.83;;;9.13;;
5559;SDS011;2803;47.916;8.074;2023-02-28T09:16:24;14.13;;;8.80;;
5559;SDS011;2803;47.916;8.074;2023-02-28T09:18:51;15.37;;;8.93;;
5559;SDS011;2803;47.916;8.074;2023-02-28T09:21:18;16.33;;;8.50;;
5559;SDS011;2803;47.916;8.074;2023-02-28T09:23:46;15.03;;;8.77;;
5559;SDS011;2803;47.916;8.074;2023-02-28T09:26:15;14.90;;;8.53;;
5559;SDS011;2803;47.916;8.074;2023-02-28T09:28:42;16.40;;;7.80;;
5559;SDS011;2803;47.916;8.074;2023-02-28T09:31:13;16.47;;;8.70;;
5559;SDS011;2803;47.916;8.074;2023-02-28T09:33:45;15.97;;;8.83;;
5559;SDS011;2803;47.916;8.074;2023-02-28T09:36:12;19.80;;;9.37;;
5559;SDS011;2803;47.916;8.074;2023-02-28T09:38:40;17.67;;;8.77;;
5559;SDS011;2803;47.916;8.074;2023-02-28T09:41:10;22.53;;;9.63;;
5559;SDS011;2803;47.916;8.074;2023-02-28T09:43:40;19.23;;;10.63;;
5559;SDS011;2803;47.916;8.074;2023-02-28T09:46:14;13.73;;;8.10;;
5559;SDS011;2803;47.916;8.074;2023-02-28T09:48:52;14.30;;;8.33;;
5559;SDS011;2803;47.916;8.074;2023-02-28T09:51:27;14.77;;;8.30;;
5559;SDS011;2803;47.916;8.074;2023-02-28T09:54:00;15.23;;;7.87;;
5559;SDS011;2803;47.916;8.074;2023-02-28T09:56:32;13.03;;;8.27;;
5559;SDS011;2803;47.916;8.074;2023-02-28T09:59:04;17.80;;;8.60;;
5559;SDS011;2803;47.916;8.074;2023-02-28T10:01:41;13.53;;;7.60;;
5559;SDS011;2803;47.916;8.074;2023-02-28T10:04:15;13.07;;;7.97;;
5559;SDS011;2803;47.916;8.074;2023-02-28T10:06:50;12.77;;;8.10;;
5559;SDS011;2803;47.916;8.074;2023-02-28T10:09:19;13.07;;;7.53;;
5559;SDS011;2803;47.916;8.074;2023-02-28T10:11:49;12.50;;;7.67;;
5559;SDS011;2803;47.916;8.074;2023-02-28T10:14:20;12.30;;;7.70;;
5559;SDS011;2803;47.916;8.074;2023-02-28T10:16:51;18.70;;;8.57;;
5559;SDS011;2803;47.916;8.074;2023-02-28T10:19:23;12.10;;;7.60;;
5559;SDS011;2803;47.916;8.074;2023-02-28T10:21:59;12.00;;;7.10;;
5559;SDS011;2803;47.916;8.074;2023-02-28T10:24:30;15.13;;;8.63;;
5559;SDS011;2803;47.916;8.074;2023-02-28T10:27:13;14.93;;;7.30;;
5559;SDS011;2803;47.916;8.074;2023-02-28T10:29:45;12.70;;;7.57;;
5559;SDS011;2803;47.916;8.074;2023-02-28T10:32:17;19.60;;;7.90;;
5559;SDS011;2803;47.916;8.074;2023-02-28T10:34:49;14.20;;;8.97;;
5559;SDS011;2803;47.916;8.074;2023-02-28T10:37:19;11.83;;;7.53;;
5559;SDS011;2803;47.916;8.074;2023-02-28T10:39:47;18.10;;;10.23;;
5559;SDS011;2803;47.916;8.074;2023-02-28T10:42:23;14.73;;;8.73;;
5559;SDS011;2803;47.916;8.074;2023-02-28T10:47:41;11.67;;;7.63;;
5559;SDS011;2803;47.916;8.074;2023-02-28T10:53:07;13.97;;;8.53;;
5559;SDS011;2803;47.916;8.074;2023-02-28T10:55:42;13.03;;;7.93;;
5559;SDS011;2803;47.916;8.074;2023-02-28T11:00:53;16.77;;;9.13;;
5559;SDS011;2803;47.916;8.074;2023-02-28T11:03:25;14.97;;;9.07;;
5559;SDS011;2803;47.916;8.074;2023-02-28T11:05:57;15.07;;;8.27;;
5559;SDS011;2803;47.916;8.074;2023-02-28T11:08:27;12.60;;;7.90;;
5559;SDS011;2803;47.916;8.074;2023-02-28T11:10:55;14.70;;;8.87;;
5559;SDS011;2803;47.916;8.074;2023-02-28T11:13:32;20.93;;;9.20;;
5559;SDS011;2803;47.916;8.074;2023-02-28T11:16:02;15.20;;;9.40;;
5559;SDS011;2803;47.916;8.074;2023-02-28T11:18:33;14.80;;;8.73;;
5559;SDS011;2803;47.916;8.074;2023-02-28T11:21:06;18.57;;;9.57;;
5559;SDS011;2803;47.916;8.074;2023-02-28T11:23:36;21.27;;;9.80;;
5559;SDS011;2803;47.916;8.074;2023-02-28T11:26:07;16.13;;;8.50;;
5559;SDS011;2803;47.916;8.074;2023-02-28T11:28:37;16.63;;;9.30;;
5559;SDS011;2803;47.916;8.074;2023-02-28T11:31:15;14.47;;;9.30;;
5559;SDS011;2803;47.916;8.074;2023-02-28T11:33:47;15.60;;;9.23;;
5559;SDS011;2803;47.916;8.074;2023-02-28T11:36:17;14.27;;;9.00;;
5559;SDS011;2803;47.916;8.074;2023-02-28T11:38:50;17.27;;;9.20;;
5559;SDS011;2803;47.916;8.074;2023-02-28T11:41:21;18.30;;;9.87;;
5559;SDS011;2803;47.916;8.074;2023-02-28T11:44:05;19.53;;;10.30;;
5559;SDS011;2803;47.916;8.074;2023-02-28T11:46:46;16.57;;;8.83;;
5559;SDS011;2803;47.916;8.074;2023-02-28T11:49:20;15.30;;;9.20;;
5559;SDS011;2803;47.916;8.074;2023-02-28T11:51:57;15.27;;;8.80;;
5559;SDS011;2803;47.916;8.074;2023-02-28T11:54:35;17.40;;;9.63;;
5559;SDS011;2803;47.916;8.074;2023-02-28T11:57:24;15.60;;;8.87;;
5559;SDS011;2803;47.916;8.074;2023-02-28T12:00:03;21.10;;;9.30;;
5559;SDS011;2803;47.916;8.074;2023-02-28T12:02:48;15.50;;;9.47;;
5559;SDS011;2803;47.916;8.074;2023-02-28T12:05:30;22.10;;;10.57;;
5559;SDS011;2803;47.916;8.074;2023-02-28T12:08:04;15.93;;;9.97;;
5559;SDS011;2803;47.916;8.074;2023-02-28T12:10:44;20.43;;;11.10;;
5559;SDS011;2803;47.916;8.074;2023-02-28T12:13:21;17.73;;;9.13;;
5559;SDS011;2803;47.916;8.074;2023-02-28T12:15:56;17.10;;;9.77;;
5559;SDS011;2803;47.916;8.074;2023-02-28T12:18:45;18.60;;;8.90;;
5559;SDS011;2803;47.916;8.074;2023-02-28T12:21:23;17.30;;;10.13;;
5559;SDS011;2803;47.916;8.074;2023-02-28T12:24:02;17.70;;;9.37;;
5559;SDS011;2803;47.916;8.074;2023-02-28T12:26:39;16.57;;;10.00;;
5559;SDS011;2803;47.916;8.074;2023-02-28T12:29:10;15.47;;;9.63;;
5559;SDS011;2803;47.916;8.074;2023-02-28T12:31:44;15.37;;;10.07;;
5559;SDS011;2803;47.916;8.074;2023-02-28T12:34:15;20.67;;;10.60;;
5559;SDS011;2803;47.916;8.074;2023-02-28T12:36:47;18.53;;;9.80;;
5559;SDS011;2803;47.916;8.074;2023-02-28T12:39:19;19.77;;;9.73;;
5559;SDS011;2803;47.916;8.074;2023-02-28T12:41:53;16.30;;;8.83;;
5559;SDS011;2803;47.916;8.074;2023-02-28T12:44:26;17.90;;;10.87;;
5559;SDS011;2803;47.916;8.074;2023-02-28T12:46:58;16.63;;;9.70;;
5559;SDS011;2803;47.916;8.074;2023-02-28T12:49:30;17.03;;;8.97;;
5559;SDS011;2803;47.916;8.074;2023-02-28T12:52:01;18.67;;;9.40;;
5559;SDS011;2803;47.916;8.074;2023-02-28T12:54:30;14.57;;;9.50;;
5559;SDS011;2803;47.916;8.074;2023-02-28T12:57:02;15.40;;;8.70;;
5559;SDS011;2803;47.916;8.074;2023-02-28T12:59:37;17.40;;;10.17;;
5559;SDS011;2803;47.916;8.074;2023-02-28T13:02:09;18.63;;;9.73;;
5559;SDS011;2803;47.916;8.074;2023-02-28T13:04:57;15.73;;;10.17;;
5559;SDS011;2803;47.916;8.074;2023-02-28T13:07:43;15.20;;;9.10;;
5559;SDS011;2803;47.916;8.074;2023-02-28T13:10:22;16.37;;;9.37;;
5559;SDS011;2803;47.916;8.074;2023-02-28T13:12:50;15.20;;;8.33;;
5559;SDS011;2803;47.916;8.074;2023-02-28T13:15:19;21.03;;;10.87;;
5559;SDS011;2803;47.916;8.074;2023-02-28T13:17:50;19.87;;;11.03;;
5559;SDS011;2803;47.916;8.074;2023-02-28T13:20:19;18.43;;;10.67;;
5559;SDS011;2803;47.916;8.074;2023-02-28T13:22:49;16.13;;;10.37;;
5559;SDS011;2803;47.916;8.074;2023-02-28T13:31:12;21.30;;;10.00;;
5559;SDS011;2803;47.916;8.074;2023-02-28T13:36:37;19.03;;;10.57;;
5559;SDS011;2803;47.916;8.074;2023-02-28T13:39:44;21.13;;;9.77;;
5559;SDS011;2803;47.916;8.074;2023-02-28T13:45:19;19.97;;;10.30;;
5559;SDS011;2803;47.916;8.074;2023-02-28T13:47:51;17.33;;;9.87;;
5559;SDS011;2803;47.916;8.074;2023-02-28T13:50:21;22.33;;;9.40;;
5559;SDS011;2803;47.916;8.074;2023-02-28T13:52:55;18.60;;;10.60;;
5559;SDS011;2803;47.916;8.074;2023-02-28T13:55:31;14.60;;;8.60;;
5559;SDS011;2803;47.916;8.074;2023-02-28T13:58:12;25.10;;;10.10;;
5559;SDS011;2803;47.916;8.074;2023-02-28T14:00:58;21.13;;;10.20;;
5559;SDS011;2803;47.916;8.074;2023-02-28T14:03:49;24.63;;;12.37;;
5559;SDS011;2803;47.916;8.074;2023-02-28T14:06:32;23.87;;;11.17;;
5559;SDS011;2803;47.916;8.074;2023-02-28T14:09:03;24.80;;;12.50;;
5559;SDS011;2803;47.916;8.074;2023-02-28T14:11:43;19.10;;;10.60;;
5559;SDS011;2803;47.916;8.074;2023-02-28T14:17:15;15.70;;;9.20;;
5559;SDS011;2803;47.916;8.074;2023-02-28T14:19:44;17.97;;;10.90;;
5559;SDS011;2803;47.916;8.074;2023-02-28T14:22:18;21.13;;;11.50;;
5559;SDS011;2803;47.916;8.074;2023-02-28T14:25:08;23.10;;;10.73;;
5559;SDS011;2803;47.916;8.074;2023-02-28T14:27:44;20.13;;;10.27;;
5559;SDS011;2803;47.916;8.074;2023-02-28T14:33:16;17.30;;;10.10;;
5559;SDS011;2803;47.916;8.074;2023-02-28T14:35:55;18.33;;;11.03;;
5559;SDS011;2803;47.916;8.074;2023-02-28T14:38:29;19.97;;;9.97;;
5559;SDS011;2803;47.916;8.074;2023-02-28T14:41:00;21.30;;;10.10;;
5559;SDS011;2803;47.916;8.074;2023-02-28T14:43:31;23.77;;;11.90;;
5559;SDS011;2803;47.916;8.074;2023-02-28T14:45:58;18.03;;;10.20;;
5559;SDS011;2803;47.916;8.074;2023-02-28T14:48:32;19.83;;;10.50;;
5559;SDS011;2803;47.916;8.074;2023-02-28T14:51:01;23.40;;;11.43;;
5559;SDS011;2803;47.916;8.074;2023-02-28T14:53:29;21.23;;;10.50;;
5559;SDS011;2803;47.916;8.074;2023-02-28T14:56:02;20.33;;;12.03;;
5559;SDS011;2803;47.916;8.074;2023-02-28T14:58:31;18.50;;;11.73;;
5559;SDS011;2803;47.916;8.074;2023-02-28T15:01:00;23.37;;;13.10;;
5559;SDS011;2803;47.916;8.074;2023-02-28T15:03:30;24.53;;;11.73;;
5559;SDS011;2803;47.916;8.074;2023-02-28T15:06:01;23.40;;;11.60;;
5559;SDS011;2803;47.916;8.074;2023-02-28T15:08:29;19.53;;;11.77;;
5559;SDS011;2803;47.916;8.074;2023-02-28T15:11:01;19.63;;;11.73;;
5559;SDS011;2803;47.916;8.074;2023-02-28T15:13:33;24.80;;;12.80;;
5559;SDS011;2803;47.916;8.074;2023-02-28T15:16:04;22.77;;;12.23;;
5559;SDS011;2803;47.916;8.074;2023-02-28T15:18:38;19.50;;;10.87;;
5559;SDS011;2803;47.916;8.074;2023-02-28T15:21:11;17.83;;;11.13;;
5559;SDS011;2803;47.916;8.074;2023-02-28T15:23:41;21.87;;;12.20;;
5559;SDS011;2803;47.916;8.074;2023-02-28T15:26:12;23.20;;;12.13;;
5559;SDS011;2803;47.916;8.074;2023-02-28T15:28:42;19.57;;;11.70;;
5559;SDS011;2803;47.916;8.074;2023-02-28T15:31:18;20.10;;;11.40;;
5559;SDS011;2803;47.916;8.074;2023-02-28T15:33:53;19.60;;;11.30;;
5559;SDS011;2803;47.916;8.074;2023-02-28T15:36:23;24.33;;;11.50;;
5559;SDS011;2803;47.916;8.074;2023-02-28T15:38:53;23.80;;;12.60;;
5559;SDS011;2803;47.916;8.074;2023-02-28T15:41:21;17.40;;;10.83;;
5559;SDS011;2803;47.916;8.074;2023-02-28T15:46:43;19.97;;;10.87;;
5559;SDS011;2803;47.916;8.074;2023-02-28T15:49:20;19.47;;;11.20;;
5559;SDS011;2803;47.916;8.074;2023-02-28T15:51:49;22.57;;;12.13;;
5559;SDS011;2803;47.916;8.074;2023-02-28T15:54:18;20.43;;;11.43;;
5559;SDS011;2803;47.916;8.074;2023-02-28T15:56:49;20.07;;;11.33;;
5559;SDS011;2803;47.916;8.074;2023-02-28T15:59:19;18.57;;;10.60;;
5559;SDS011;2803;47.916;8.074;2023-02-28T16:02:01;19.67;;;11.83;;